createdAt,value
2023-05-21T00:01:10.627Z,16.73
2023-05-21T00:06:15.683Z,16.64
2023-05-21T00:11:17.387Z,16.57
2023-05-21T00:16:19.040Z,16.55
2023-05-21T00:21:23.058Z,16.61
2023-05-21T00:26:24.624Z,16.45
2023-05-21T00:31:30.421Z,16.33
2023-05-21T00:36:31.971Z,16.22
2023-05-21T00:41:35.300Z,16.17
2023-05-21T00:46:36.883Z,16.11
2023-05-21T00:51:38.388Z,16.08
2023-05-21T00:56:40.020Z,16.11
2023-05-21T01:01:45.524Z,16.07
2023-05-21T01:06:47.167Z,16.14
2023-05-21T01:11:50.729Z,16.00
2023-05-21T01:16:52.858Z,15.94
2023-05-21T01:22:04.277Z,15.94
2023-05-21T01:27:07.690Z,15.88
2023-05-21T01:32:50.386Z,15.80
2023-05-21T01:38:04.981Z,15.88
2023-05-21T01:43:08.411Z,15.84
2023-05-21T01:48:12.150Z,15.81
2023-05-21T01:53:13.843Z,15.82
2023-05-21T01:58:18.884Z,15.62
2023-05-21T02:03:21.610Z,15.56
2023-05-21T02:08:23.478Z,15.76
2023-05-21T02:13:26.610Z,15.42
2023-05-21T02:18:29.269Z,15.43
2023-05-21T02:23:31.366Z,15.47
2023-05-21T02:28:34.030Z,15.40
2023-05-21T02:33:35.541Z,15.39
2023-05-21T02:38:38.241Z,15.30
2023-05-21T02:43:40.009Z,15.53
2023-05-21T02:48:41.820Z,15.27
2023-05-21T02:53:43.381Z,15.30
2023-05-21T02:58:44.870Z,15.08
2023-05-21T03:03:46.828Z,14.97
2023-05-21T03:08:48.439Z,14.88
2023-05-21T03:13:50.096Z,14.71
2023-05-21T03:18:51.793Z,14.66
2023-05-21T03:23:58.570Z,14.67
2023-05-21T03:29:00.250Z,14.71
2023-05-21T03:34:01.965Z,14.65
2023-05-21T03:39:06.986Z,14.69
2023-05-21T03:44:09.660Z,14.85
2023-05-21T03:49:23.607Z,14.86
2023-05-21T03:54:27.797Z,14.55
2023-05-21T03:59:33.813Z,14.44
2023-05-21T04:04:37.050Z,14.53
2023-05-21T04:09:39.137Z,14.66
2023-05-21T04:14:41.295Z,14.78
2023-05-21T04:19:42.803Z,14.75
2023-05-21T04:24:46.518Z,15.07
2023-05-21T04:29:54.686Z,15.06
2023-05-21T04:35:01.054Z,15.25
2023-05-21T04:40:04.251Z,15.29
2023-05-21T04:45:06.377Z,15.36
2023-05-21T04:50:11.927Z,14.86
2023-05-21T04:55:13.560Z,14.51
2023-05-21T05:00:16.387Z,14.91
2023-05-21T05:05:20.039Z,15.15
2023-05-21T05:10:22.344Z,15.15
2023-05-21T05:15:23.999Z,15.11
2023-05-21T05:20:26.574Z,15.53
2023-05-21T05:25:28.156Z,15.59
2023-05-21T05:30:29.796Z,15.51
2023-05-21T05:35:39.847Z,15.68
2023-05-21T05:40:42.074Z,15.78
2023-05-21T05:45:45.381Z,15.76
2023-05-21T05:50:49.377Z,16.05
2023-05-21T05:55:51.254Z,16.14
2023-05-21T06:00:53.465Z,16.22
2023-05-21T06:05:55.267Z,16.24
2023-05-21T06:10:57.750Z,16.43
2023-05-21T06:15:59.539Z,16.61
2023-05-21T06:21:01.578Z,16.74
2023-05-21T06:26:53.567Z,16.93
2023-05-21T06:31:55.727Z,16.98
2023-05-21T06:36:59.466Z,17.10
2023-05-21T06:42:01.804Z,17.18
2023-05-21T06:47:28.001Z,17.29
2023-05-21T06:52:31.672Z,17.45
2023-05-21T06:57:33.455Z,17.44
2023-05-21T07:02:35.481Z,17.40
2023-05-21T07:07:40.009Z,17.48
2023-05-21T07:12:41.598Z,17.61
2023-05-21T07:17:43.924Z,17.77
2023-05-21T07:22:48.819Z,17.79
2023-05-21T07:27:52.192Z,17.94
2023-05-21T07:32:54.714Z,18.04
2023-05-21T07:37:58.803Z,18.14
2023-05-21T07:43:00.482Z,18.17
2023-05-21T07:48:05.092Z,18.25
2023-05-21T07:53:08.940Z,18.46
2023-05-21T07:58:10.651Z,18.49
2023-05-21T08:03:26.704Z,18.79
2023-05-21T08:08:28.544Z,19.08
2023-05-21T08:13:31.657Z,19.40
2023-05-21T08:18:33.438Z,19.50
2023-05-21T08:23:35.764Z,19.60
2023-05-21T08:28:40.123Z,19.98
2023-05-21T08:33:50.399Z,20.15
2023-05-21T08:38:52.707Z,20.65
2023-05-21T08:44:02.072Z,20.92
2023-05-21T08:49:03.834Z,21.23
2023-05-21T08:54:07.989Z,21.65
2023-05-21T08:59:09.643Z,21.87
2023-05-21T09:04:21.165Z,22.22
2023-05-21T09:09:39.712Z,22.67
2023-05-21T09:14:45.664Z,23.19
2023-05-21T09:20:15.189Z,23.22
2023-05-21T09:25:29.737Z,23.65
2023-05-21T09:30:36.205Z,23.89
2023-05-21T09:35:49.881Z,24.03
2023-05-21T09:40:57.577Z,24.48
2023-05-21T09:46:02.111Z,24.78
2023-05-21T09:51:17.247Z,24.89
2023-05-21T09:56:24.620Z,25.27
2023-05-21T10:01:27.221Z,25.33
2023-05-21T10:06:33.605Z,25.69
2023-05-21T10:11:36.764Z,25.63
2023-05-21T10:17:12.411Z,25.78
2023-05-21T10:22:14.543Z,26.39
2023-05-21T10:27:17.761Z,26.41
2023-05-21T10:32:21.535Z,26.35
2023-05-21T10:37:27.596Z,26.84
2023-05-21T10:42:34.829Z,27.23
2023-05-21T10:48:14.192Z,27.59
2023-05-21T10:53:51.402Z,27.58
2023-05-21T10:59:31.049Z,28.71
2023-05-21T11:04:39.963Z,27.90
2023-05-21T11:09:41.724Z,28.75
2023-05-21T11:15:00.025Z,28.60
2023-05-21T11:20:07.597Z,28.33
2023-05-21T11:25:09.677Z,28.20
2023-05-21T11:30:19.347Z,29.61
2023-05-21T11:35:27.251Z,29.25
2023-05-21T11:40:30.562Z,29.03
2023-05-21T11:45:32.838Z,29.56
2023-05-21T11:50:34.912Z,29.51
2023-05-21T11:55:43.511Z,29.84
2023-05-21T12:00:45.293Z,30.02
2023-05-21T12:05:47.866Z,29.50
2023-05-21T12:10:54.742Z,29.84
2023-05-21T12:15:56.349Z,30.47
2023-05-21T12:20:57.849Z,29.98
2023-05-21T12:25:59.751Z,30.86
2023-05-21T12:31:03.953Z,30.69
2023-05-21T12:36:05.956Z,30.76
2023-05-21T12:41:07.917Z,30.26
2023-05-21T12:46:14.676Z,30.10
2023-05-21T12:51:16.275Z,30.51
2023-05-21T12:56:20.985Z,30.38
2023-05-21T13:01:26.487Z,30.41
2023-05-21T13:06:28.575Z,31.61
2023-05-21T13:11:30.216Z,31.64
2023-05-21T13:16:32.197Z,31.29
2023-05-21T13:21:33.746Z,31.83
2023-05-21T13:26:36.276Z,31.60
2023-05-21T13:31:37.991Z,30.20
2023-05-21T13:36:40.468Z,31.99
2023-05-21T13:41:42.494Z,30.77
2023-05-21T13:46:45.280Z,30.37
2023-05-21T13:51:47.546Z,31.70
2023-05-21T13:56:49.040Z,32.19
2023-05-21T14:01:52.372Z,29.46
2023-05-21T14:06:54.395Z,30.01
2023-05-21T14:11:59.756Z,29.84
2023-05-21T14:17:01.398Z,29.74
2023-05-21T14:22:02.964Z,30.75
2023-05-21T14:27:04.741Z,30.79
2023-05-21T14:32:06.777Z,29.92
2023-05-21T14:37:08.356Z,30.31
2023-05-21T14:42:09.864Z,30.12
2023-05-21T14:47:11.365Z,29.97
2023-05-21T14:52:12.851Z,30.00
2023-05-21T14:57:14.428Z,30.71
2023-05-21T15:02:16.416Z,30.56
2023-05-21T15:07:18.006Z,29.94
2023-05-21T15:12:19.546Z,30.34
2023-05-21T15:17:21.035Z,30.60
2023-05-21T15:22:22.545Z,30.03
2023-05-21T15:27:24.746Z,30.27
2023-05-21T15:32:26.493Z,30.30
2023-05-21T15:37:28.153Z,29.59
2023-05-21T15:42:31.950Z,29.39
2023-05-21T15:47:33.573Z,29.43
2023-05-21T15:52:36.757Z,29.64
2023-05-21T15:57:38.414Z,28.45
2023-05-21T16:02:41.836Z,29.87
2023-05-21T16:07:44.410Z,29.58
2023-05-21T16:12:45.952Z,30.01
2023-05-21T16:17:47.600Z,29.12
2023-05-21T16:22:49.248Z,29.39
2023-05-21T16:27:50.769Z,29.82
2023-05-21T16:32:52.683Z,29.85
2023-05-21T16:37:54.186Z,29.84
2023-05-21T16:42:55.707Z,29.93
2023-05-21T16:47:57.612Z,29.30
2023-05-21T16:53:02.196Z,29.25
2023-05-21T16:58:05.493Z,29.37
2023-05-21T17:03:07.030Z,28.64
2023-05-21T17:08:08.794Z,28.31
2023-05-21T17:13:21.638Z,28.58
2023-05-21T17:18:24.418Z,28.92
2023-05-21T17:23:25.889Z,28.64
2023-05-21T17:28:28.406Z,28.78
2023-05-21T17:33:29.932Z,28.13
2023-05-21T17:38:31.411Z,28.41
2023-05-21T17:43:33.051Z,28.33
2023-05-21T17:48:34.532Z,27.93
2023-05-21T17:53:36.578Z,28.27
2023-05-21T17:58:38.103Z,28.39
2023-05-21T18:03:39.684Z,27.87
2023-05-21T18:08:41.269Z,27.92
2023-05-21T18:13:43.197Z,27.21
2023-05-21T18:18:45.004Z,26.94
2023-05-21T18:23:46.499Z,27.30
2023-05-21T18:28:48.893Z,27.14
2023-05-21T18:33:50.934Z,26.62
2023-05-21T18:38:53.322Z,26.81
2023-05-21T18:43:54.831Z,27.07
2023-05-21T18:48:56.422Z,26.25
2023-05-21T18:53:58.652Z,27.01
2023-05-21T18:59:00.170Z,27.00
2023-05-21T19:04:01.700Z,26.52
2023-05-21T19:09:03.555Z,27.03
2023-05-21T19:14:05.057Z,26.68
2023-05-21T19:19:06.570Z,26.80
2023-05-21T19:24:08.160Z,26.64
2023-05-21T19:29:10.871Z,26.31
2023-05-21T19:34:12.416Z,26.33
2023-05-21T19:39:13.952Z,26.30
2023-05-21T19:44:15.557Z,25.99
2023-05-21T19:49:17.106Z,25.93
2023-05-21T19:54:18.655Z,25.87
2023-05-21T19:59:20.296Z,25.48
2023-05-21T20:04:22.503Z,25.52
2023-05-21T20:09:24.250Z,25.19
2023-05-21T20:14:25.825Z,24.99
2023-05-21T20:19:29.001Z,24.98
2023-05-21T20:24:30.662Z,24.90
2023-05-21T20:29:32.306Z,24.78
2023-05-21T20:34:33.790Z,24.65
2023-05-21T20:39:37.205Z,24.53
2023-05-21T20:44:38.771Z,24.35
2023-05-21T20:49:40.236Z,24.24
2023-05-21T20:54:42.580Z,24.05
2023-05-21T20:59:44.092Z,23.62
2023-05-21T21:04:48.976Z,23.73
2023-05-21T21:09:50.562Z,23.64
2023-05-21T21:14:52.078Z,23.56
2023-05-21T21:19:53.607Z,23.45
2023-05-21T21:24:55.092Z,23.30
2023-05-21T21:29:56.577Z,23.20
2023-05-21T21:34:58.136Z,23.01
2023-05-21T21:39:59.612Z,22.88
2023-05-21T21:45:01.118Z,22.77
2023-05-21T21:50:02.647Z,22.69
2023-05-21T21:55:04.326Z,22.61
2023-05-21T22:00:17.131Z,22.47
2023-05-21T22:05:19.273Z,22.35
2023-05-21T22:10:21.249Z,22.13
2023-05-21T22:15:25.181Z,22.04
2023-05-21T22:20:29.152Z,22.02
2023-05-21T22:25:30.701Z,21.92
2023-05-21T22:30:32.236Z,21.80
2023-05-21T22:35:33.737Z,21.71
2023-05-21T22:40:35.695Z,21.58
2023-05-21T22:45:38.383Z,21.48
2023-05-21T22:50:40.504Z,21.41
2023-05-21T22:55:42.335Z,21.24
2023-05-21T23:00:44.159Z,21.16
2023-05-21T23:05:46.100Z,21.02
2023-05-21T23:10:47.871Z,20.97
2023-05-21T23:15:50.821Z,20.63
2023-05-21T23:20:52.601Z,20.47
2023-05-21T23:25:57.408Z,20.65
2023-05-21T23:30:59.398Z,20.56
2023-05-21T23:36:01.044Z,20.36
2023-05-21T23:41:02.602Z,20.14
2023-05-21T23:46:04.144Z,20.13
2023-05-21T23:51:06.972Z,20.19
2023-05-21T23:56:08.453Z,20.20
